sensor_id;sensor_type;location;lat;lon;timestamp;P1;durP1;ratioP1;P2;durP2;ratioP2
24631;SDS011;59977;48.782;9.190;2023-02-12T07:18:26;46.42;;;25.63;;
24631;SDS011;59977;48.782;9.190;2023-02-12T09:46:11;47.65;;;29.23;;
24631;SDS011;59977;48.782;9.190;2023-02-12T09:51:27;54.83;;;30.05;;
24631;SDS011;59977;48.782;9.190;2023-02-12T09:54:03;50.85;;;29.33;;
24631;SDS011;59977;48.782;9.190;2023-02-12T09:56:38;51.38;;;28.83;;
24631;SDS011;59977;48.782;9.190;2023-02-12T10:17:11;47.88;;;28.13;;
24631;SDS011;59977;48.782;9.190;2023-02-12T10:53:35;37.70;;;23.27;;
24631;SDS011;59977;48.782;9.190;2023-02-12T10:56:22;39.85;;;24.15;;
24631;SDS011;59977;48.782;9.190;2023-02-12T11:03:58;29.05;;;16.67;;
24631;SDS011;59977;48.782;9.190;2023-02-12T11:06:28;21.70;;;15.80;;
24631;SDS011;59977;48.782;9.190;2023-02-12T11:08:56;23.98;;;17.23;;
24631;SDS011;59977;48.782;9.190;2023-02-12T11:16:46;29.15;;;17.27;;
24631;SDS011;59977;48.782;9.190;2023-02-12T11:19:21;25.88;;;15.73;;
24631;SDS011;59977;48.782;9.190;2023-02-12T11:22:03;26.83;;;16.38;;
24631;SDS011;59977;48.782;9.190;2023-02-12T11:24:33;27.40;;;16.80;;
24631;SDS011;59977;48.782;9.190;2023-02-12T11:29:37;17.42;;;11.25;;
24631;SDS011;59977;48.782;9.190;2023-02-12T11:32:04;15.55;;;10.02;;
24631;SDS011;59977;48.782;9.190;2023-02-12T11:34:32;14.13;;;8.20;;
24631;SDS011;59977;48.782;9.190;2023-02-12T11:36:59;12.23;;;7.13;;
24631;SDS011;59977;48.782;9.190;2023-02-12T11:39:27;12.07;;;7.45;;
24631;SDS011;59977;48.782;9.190;2023-02-12T11:42:06;12.02;;;7.05;;
24631;SDS011;59977;48.782;9.190;2023-02-12T11:44:47;11.00;;;7.70;;
24631;SDS011;59977;48.782;9.190;2023-02-12T11:49:52;9.88;;;6.80;;
24631;SDS011;59977;48.782;9.190;2023-02-12T11:52:21;13.38;;;6.72;;
24631;SDS011;59977;48.782;9.190;2023-02-12T11:54:50;10.70;;;6.30;;
24631;SDS011;59977;48.782;9.190;2023-02-12T12:00:26;10.15;;;6.85;;
24631;SDS011;59977;48.782;9.190;2023-02-12T12:05:29;11.85;;;7.40;;
24631;SDS011;59977;48.782;9.190;2023-02-12T12:08:03;10.68;;;6.90;;
24631;SDS011;59977;48.782;9.190;2023-02-12T12:10:39;12.48;;;7.57;;
24631;SDS011;59977;48.782;9.190;2023-02-12T12:13:15;11.90;;;7.63;;
24631;SDS011;59977;48.782;9.190;2023-02-12T12:15:49;11.85;;;7.53;;
24631;SDS011;59977;48.782;9.190;2023-02-12T12:18:41;13.18;;;7.88;;
24631;SDS011;59977;48.782;9.190;2023-02-12T12:21:35;11.73;;;7.15;;
24631;SDS011;59977;48.782;9.190;2023-02-12T12:24:14;11.38;;;7.15;;
24631;SDS011;59977;48.782;9.190;2023-02-12T12:26:46;11.23;;;7.55;;
24631;SDS011;59977;48.782;9.190;2023-02-12T12:32:17;12.35;;;6.53;;
24631;SDS011;59977;48.782;9.190;2023-02-12T12:34:47;8.65;;;6.10;;
24631;SDS011;59977;48.782;9.190;2023-02-12T12:37:16;9.73;;;6.60;;
24631;SDS011;59977;48.782;9.190;2023-02-12T12:57:02;10.05;;;6.20;;
24631;SDS011;59977;48.782;9.190;2023-02-12T13:02:17;10.13;;;6.90;;
24631;SDS011;59977;48.782;9.190;2023-02-12T13:08:26;11.65;;;7.05;;
24631;SDS011;59977;48.782;9.190;2023-02-12T13:13:45;13.15;;;6.75;;
24631;SDS011;59977;48.782;9.190;2023-02-12T13:19:08;10.98;;;6.00;;
24631;SDS011;59977;48.782;9.190;2023-02-12T13:26:40;12.05;;;6.40;;
24631;SDS011;59977;48.782;9.190;2023-02-12T13:29:20;9.73;;;6.80;;
24631;SDS011;59977;48.782;9.190;2023-02-12T13:31:53;9.48;;;6.53;;
24631;SDS011;59977;48.782;9.190;2023-02-12T13:34:21;10.43;;;6.07;;
24631;SDS011;59977;48.782;9.190;2023-02-12T13:36:53;8.63;;;5.85;;
24631;SDS011;59977;48.782;9.190;2023-02-12T13:42:01;7.90;;;5.35;;
24631;SDS011;59977;48.782;9.190;2023-02-12T13:44:33;8.20;;;4.95;;
24631;SDS011;59977;48.782;9.190;2023-02-12T13:50:19;8.43;;;5.18;;
24631;SDS011;59977;48.782;9.190;2023-02-12T13:53:11;6.82;;;4.53;;
24631;SDS011;59977;48.782;9.190;2023-02-12T13:58:52;9.60;;;4.82;;
24631;SDS011;59977;48.782;9.190;2023-02-12T14:01:36;7.47;;;5.00;;
24631;SDS011;59977;48.782;9.190;2023-02-12T14:27:44;5.20;;;3.72;;
24631;SDS011;59977;48.782;9.190;2023-02-12T14:30:25;7.28;;;3.67;;
24631;SDS011;59977;48.782;9.190;2023-02-12T14:32:55;8.15;;;3.30;;
24631;SDS011;59977;48.782;9.190;2023-02-12T14:37:54;4.85;;;3.38;;
24631;SDS011;59977;48.782;9.190;2023-02-12T14:40:42;5.95;;;3.22;;
24631;SDS011;59977;48.782;9.190;2023-02-12T14:43:25;3.88;;;3.00;;
24631;SDS011;59977;48.782;9.190;2023-02-12T14:48:51;3.88;;;3.10;;
24631;SDS011;59977;48.782;9.190;2023-02-12T14:51:23;4.15;;;3.05;;
24631;SDS011;59977;48.782;9.190;2023-02-12T14:54:05;4.32;;;2.78;;
24631;SDS011;59977;48.782;9.190;2023-02-12T15:02:50;4.28;;;2.75;;
24631;SDS011;59977;48.782;9.190;2023-02-12T15:05:30;3.17;;;2.70;;
24631;SDS011;59977;48.782;9.190;2023-02-12T15:08:05;4.10;;;2.50;;
24631;SDS011;59977;48.782;9.190;2023-02-12T15:10:48;4.40;;;2.60;;
24631;SDS011;59977;48.782;9.190;2023-02-12T15:16:06;3.92;;;2.58;;
24631;SDS011;59977;48.782;9.190;2023-02-12T15:18:56;2.63;;;2.30;;
24631;SDS011;59977;48.782;9.190;2023-02-12T15:21:40;3.33;;;2.40;;
24631;SDS011;59977;48.782;9.190;2023-02-12T15:24:09;4.00;;;2.63;;
24631;SDS011;59977;48.782;9.190;2023-02-12T15:26:52;6.18;;;2.90;;
24631;SDS011;59977;48.782;9.190;2023-02-12T15:29:27;3.40;;;2.50;;
24631;SDS011;59977;48.782;9.190;2023-02-12T15:31:58;4.25;;;2.58;;
24631;SDS011;59977;48.782;9.190;2023-02-12T15:34:27;4.68;;;3.00;;
24631;SDS011;59977;48.782;9.190;2023-02-12T15:37:04;5.10;;;2.80;;
24631;SDS011;59977;48.782;9.190;2023-02-12T15:39:39;4.18;;;2.22;;
24631;SDS011;59977;48.782;9.190;2023-02-12T15:45:00;3.38;;;2.30;;
24631;SDS011;59977;48.782;9.190;2023-02-12T15:47:41;3.35;;;2.30;;
24631;SDS011;59977;48.782;9.190;2023-02-12T15:50:17;3.83;;;2.50;;
24631;SDS011;59977;48.782;9.190;2023-02-12T15:52:43;4.93;;;2.28;;
24631;SDS011;59977;48.782;9.190;2023-02-12T15:55:15;5.57;;;2.30;;
24631;SDS011;59977;48.782;9.190;2023-02-12T15:57:52;5.70;;;2.70;;
24631;SDS011;59977;48.782;9.190;2023-02-12T16:02:50;6.63;;;3.58;;
24631;SDS011;59977;48.782;9.190;2023-02-12T16:05:16;4.78;;;2.53;;
24631;SDS011;59977;48.782;9.190;2023-02-12T16:07:42;3.75;;;2.80;;
24631;SDS011;59977;48.782;9.190;2023-02-12T16:10:12;4.68;;;2.60;;
24631;SDS011;59977;48.782;9.190;2023-02-12T16:12:39;5.53;;;2.97;;
24631;SDS011;59977;48.782;9.190;2023-02-12T16:15:06;3.22;;;2.42;;
24631;SDS011;59977;48.782;9.190;2023-02-12T16:17:47;4.07;;;2.60;;
24631;SDS011;59977;48.782;9.190;2023-02-12T16:22:44;4.60;;;2.87;;
24631;SDS011;59977;48.782;9.190;2023-02-12T16:25:24;2.92;;;2.28;;
24631;SDS011;59977;48.782;9.190;2023-02-12T16:28:07;4.68;;;3.10;;
24631;SDS011;59977;48.782;9.190;2023-02-12T16:30:42;5.18;;;2.90;;
24631;SDS011;59977;48.782;9.190;2023-02-12T16:35:59;4.70;;;3.00;;
24631;SDS011;59977;48.782;9.190;2023-02-12T16:43:44;4.40;;;3.03;;
24631;SDS011;59977;48.782;9.190;2023-02-12T16:46:11;8.80;;;3.97;;
24631;SDS011;59977;48.782;9.190;2023-02-12T16:48:45;6.28;;;3.78;;
24631;SDS011;59977;48.782;9.190;2023-02-12T16:51:26;5.47;;;3.65;;
24631;SDS011;59977;48.782;9.190;2023-02-12T16:53:55;6.05;;;4.10;;
24631;SDS011;59977;48.782;9.190;2023-02-12T16:56:23;6.88;;;4.53;;
24631;SDS011;59977;48.782;9.190;2023-02-12T16:58:52;8.55;;;3.85;;
24631;SDS011;59977;48.782;9.190;2023-02-12T17:01:22;9.55;;;4.78;;
24631;SDS011;59977;48.782;9.190;2023-02-12T17:03:50;9.73;;;4.93;;
24631;SDS011;59977;48.782;9.190;2023-02-12T17:06:17;7.90;;;4.68;;
24631;SDS011;59977;48.782;9.190;2023-02-12T17:08:44;7.82;;;4.80;;
24631;SDS011;59977;48.782;9.190;2023-02-12T17:11:11;7.50;;;4.90;;
24631;SDS011;59977;48.782;9.190;2023-02-12T17:13:39;12.07;;;5.95;;
24631;SDS011;59977;48.782;9.190;2023-02-12T17:16:04;13.10;;;9.07;;
24631;SDS011;59977;48.782;9.190;2023-02-12T17:18:30;11.38;;;5.25;;
24631;SDS011;59977;48.782;9.190;2023-02-12T17:21:43;10.23;;;6.15;;
24631;SDS011;59977;48.782;9.190;2023-02-12T17:23:49;9.02;;;5.78;;
24631;SDS011;59977;48.782;9.190;2023-02-12T17:26:17;13.98;;;5.60;;
24631;SDS011;59977;48.782;9.190;2023-02-12T17:28:43;11.00;;;5.95;;
24631;SDS011;59977;48.782;9.190;2023-02-12T17:31:09;10.75;;;5.68;;
24631;SDS011;59977;48.782;9.190;2023-02-12T17:33:35;11.68;;;5.80;;
24631;SDS011;59977;48.782;9.190;2023-02-12T17:36:01;10.05;;;6.28;;
24631;SDS011;59977;48.782;9.190;2023-02-12T17:38:27;9.45;;;6.15;;
24631;SDS011;59977;48.782;9.190;2023-02-12T17:40:53;12.82;;;6.63;;
24631;SDS011;59977;48.782;9.190;2023-02-12T17:43:18;21.80;;;6.55;;
24631;SDS011;59977;48.782;9.190;2023-02-12T17:45:44;11.50;;;6.55;;
24631;SDS011;59977;48.782;9.190;2023-02-12T17:48:10;12.82;;;6.10;;
24631;SDS011;59977;48.782;9.190;2023-02-12T17:50:37;19.35;;;7.30;;
24631;SDS011;59977;48.782;9.190;2023-02-12T17:53:03;28.00;;;7.90;;
24631;SDS011;59977;48.782;9.190;2023-02-12T17:55:29;33.45;;;7.10;;
24631;SDS011;59977;48.782;9.190;2023-02-12T17:57:55;10.82;;;6.22;;
24631;SDS011;59977;48.782;9.190;2023-02-12T18:00:21;26.00;;;7.07;;
24631;SDS011;59977;48.782;9.190;2023-02-12T18:02:47;20.23;;;6.88;;
24631;SDS011;59977;48.782;9.190;2023-02-12T18:05:13;22.70;;;7.35;;
24631;SDS011;59977;48.782;9.190;2023-02-12T18:07:39;31.58;;;7.90;;
24631;SDS011;59977;48.782;9.190;2023-02-12T18:10:05;15.63;;;7.13;;
24631;SDS011;59977;48.782;9.190;2023-02-12T18:12:32;17.88;;;7.55;;
24631;SDS011;59977;48.782;9.190;2023-02-12T18:14:59;18.38;;;7.47;;
24631;SDS011;59977;48.782;9.190;2023-02-12T18:17:26;18.90;;;7.40;;
24631;SDS011;59977;48.782;9.190;2023-02-12T18:19:52;20.95;;;7.38;;
24631;SDS011;59977;48.782;9.190;2023-02-12T18:22:18;23.20;;;8.50;;
24631;SDS011;59977;48.782;9.190;2023-02-12T18:24:45;13.95;;;6.97;;
24631;SDS011;59977;48.782;9.190;2023-02-12T18:27:11;18.83;;;9.00;;
24631;SDS011;59977;48.782;9.190;2023-02-12T18:29:37;18.42;;;8.65;;
24631;SDS011;59977;48.782;9.190;2023-02-12T18:32:03;21.70;;;9.05;;
24631;SDS011;59977;48.782;9.190;2023-02-12T18:34:29;18.52;;;8.10;;
24631;SDS011;59977;48.782;9.190;2023-02-12T18:36:55;17.67;;;8.93;;
24631;SDS011;59977;48.782;9.190;2023-02-12T18:39:21;22.17;;;9.85;;
24631;SDS011;59977;48.782;9.190;2023-02-12T18:41:47;18.50;;;9.93;;
24631;SDS011;59977;48.782;9.190;2023-02-12T18:44:13;18.30;;;10.02;;
24631;SDS011;59977;48.782;9.190;2023-02-12T18:46:39;18.30;;;10.52;;
24631;SDS011;59977;48.782;9.190;2023-02-12T18:49:05;17.23;;;10.07;;
24631;SDS011;59977;48.782;9.190;2023-02-12T18:51:31;19.23;;;10.05;;
24631;SDS011;59977;48.782;9.190;2023-02-12T18:54:01;20.00;;;9.25;;
24631;SDS011;59977;48.782;9.190;2023-02-12T18:56:30;16.90;;;8.85;;
24631;SDS011;59977;48.782;9.190;2023-02-12T18:58:58;17.60;;;9.65;;
24631;SDS011;59977;48.782;9.190;2023-02-12T19:01:25;19.95;;;10.38;;
24631;SDS011;59977;48.782;9.190;2023-02-12T19:03:53;14.98;;;8.73;;
24631;SDS011;59977;48.782;9.190;2023-02-12T19:06:21;20.00;;;10.30;;
24631;SDS011;59977;48.782;9.190;2023-02-12T19:08:47;22.65;;;11.55;;
24631;SDS011;59977;48.782;9.190;2023-02-12T19:11:13;22.73;;;11.85;;
24631;SDS011;59977;48.782;9.190;2023-02-12T19:13:39;22.70;;;11.98;;
24631;SDS011;59977;48.782;9.190;2023-02-12T19:16:09;28.98;;;13.57;;
24631;SDS011;59977;48.782;9.190;2023-02-12T19:18:36;29.90;;;13.75;;
24631;SDS011;59977;48.782;9.190;2023-02-12T19:21:06;37.65;;;12.23;;
24631;SDS011;59977;48.782;9.190;2023-02-12T19:23:33;20.48;;;11.45;;
24631;SDS011;59977;48.782;9.190;2023-02-12T19:26:07;25.92;;;12.38;;
24631;SDS011;59977;48.782;9.190;2023-02-12T19:28:34;25.05;;;11.75;;
24631;SDS011;59977;48.782;9.190;2023-02-12T19:31:12;25.73;;;12.73;;
24631;SDS011;59977;48.782;9.190;2023-02-12T19:33:45;24.60;;;11.88;;
24631;SDS011;59977;48.782;9.190;2023-02-12T19:36:12;22.13;;;11.55;;
24631;SDS011;59977;48.782;9.190;2023-02-12T19:38:40;29.17;;;13.48;;
24631;SDS011;59977;48.782;9.190;2023-02-12T19:41:07;29.58;;;14.57;;
24631;SDS011;59977;48.782;9.190;2023-02-12T19:43:34;22.08;;;10.82;;
24631;SDS011;59977;48.782;9.190;2023-02-12T19:46:04;20.77;;;11.15;;
24631;SDS011;59977;48.782;9.190;2023-02-12T19:48:31;32.65;;;14.50;;
24631;SDS011;59977;48.782;9.190;2023-02-12T19:50:58;21.92;;;12.02;;
24631;SDS011;59977;48.782;9.190;2023-02-12T19:53:23;20.50;;;11.30;;
24631;SDS011;59977;48.782;9.190;2023-02-12T19:55:51;18.88;;;11.00;;
24631;SDS011;59977;48.782;9.190;2023-02-12T19:58:17;18.52;;;10.23;;
24631;SDS011;59977;48.782;9.190;2023-02-12T20:00:43;18.35;;;10.00;;
24631;SDS011;59977;48.782;9.190;2023-02-12T20:03:09;18.20;;;9.88;;
24631;SDS011;59977;48.782;9.190;2023-02-12T20:05:34;23.98;;;11.35;;
24631;SDS011;59977;48.782;9.190;2023-02-12T20:08:08;20.95;;;10.57;;
24631;SDS011;59977;48.782;9.190;2023-02-12T20:10:34;15.60;;;9.20;;
24631;SDS011;59977;48.782;9.190;2023-02-12T20:13:06;18.95;;;11.00;;
24631;SDS011;59977;48.782;9.190;2023-02-12T20:15:33;14.80;;;9.90;;
24631;SDS011;59977;48.782;9.190;2023-02-12T20:18:01;18.63;;;10.32;;
24631;SDS011;59977;48.782;9.190;2023-02-12T20:20:30;18.77;;;9.80;;
24631;SDS011;59977;48.782;9.190;2023-02-12T20:22:56;15.77;;;9.10;;
24631;SDS011;59977;48.782;9.190;2023-02-12T20:25:22;16.40;;;9.73;;
24631;SDS011;59977;48.782;9.190;2023-02-12T20:27:47;14.43;;;8.95;;
24631;SDS011;59977;48.782;9.190;2023-02-12T20:30:15;17.02;;;9.95;;
24631;SDS011;59977;48.782;9.190;2023-02-12T20:32:41;17.60;;;9.95;;
24631;SDS011;59977;48.782;9.190;2023-02-12T20:35:08;15.40;;;9.25;;
24631;SDS011;59977;48.782;9.190;2023-02-12T20:37:34;19.77;;;10.25;;
24631;SDS011;59977;48.782;9.190;2023-02-12T20:40:00;17.85;;;10.57;;
24631;SDS011;59977;48.782;9.190;2023-02-12T20:42:25;17.15;;;10.50;;
24631;SDS011;59977;48.782;9.190;2023-02-12T20:44:51;18.42;;;10.68;;
24631;SDS011;59977;48.782;9.190;2023-02-12T20:47:17;17.13;;;10.40;;
24631;SDS011;59977;48.782;9.190;2023-02-12T20:49:42;16.42;;;10.07;;
24631;SDS011;59977;48.782;9.190;2023-02-12T20:52:08;18.10;;;10.48;;
24631;SDS011;59977;48.782;9.190;2023-02-12T20:54:33;17.98;;;10.43;;
24631;SDS011;59977;48.782;9.190;2023-02-12T20:57:01;20.15;;;10.48;;
24631;SDS011;59977;48.782;9.190;2023-02-12T20:59:30;19.25;;;11.07;;
24631;SDS011;59977;48.782;9.190;2023-02-12T21:01:56;26.70;;;14.60;;
24631;SDS011;59977;48.782;9.190;2023-02-12T21:04:22;24.42;;;12.30;;
24631;SDS011;59977;48.782;9.190;2023-02-12T21:06:47;19.88;;;11.65;;
24631;SDS011;59977;48.782;9.190;2023-02-12T21:09:13;19.13;;;11.32;;
24631;SDS011;59977;48.782;9.190;2023-02-12T21:11:40;21.83;;;11.75;;
24631;SDS011;59977;48.782;9.190;2023-02-12T21:14:09;25.13;;;11.43;;
24631;SDS011;59977;48.782;9.190;2023-02-12T21:16:36;19.38;;;11.18;;
24631;SDS011;59977;48.782;9.190;2023-02-12T21:19:05;23.17;;;11.23;;
24631;SDS011;59977;48.782;9.190;2023-02-12T21:21:32;17.02;;;10.82;;
24631;SDS011;59977;48.782;9.190;2023-02-12T21:24:01;21.20;;;11.10;;
24631;SDS011;59977;48.782;9.190;2023-02-12T21:26:29;24.38;;;12.32;;
24631;SDS011;59977;48.782;9.190;2023-02-12T21:28:56;27.58;;;13.10;;
24631;SDS011;59977;48.782;9.190;2023-02-12T21:31:25;32.75;;;15.32;;
24631;SDS011;59977;48.782;9.190;2023-02-12T21:33:53;41.50;;;18.33;;
24631;SDS011;59977;48.782;9.190;2023-02-12T21:36:23;45.50;;;20.90;;
24631;SDS011;59977;48.782;9.190;2023-02-12T21:38:51;41.05;;;19.85;;
24631;SDS011;59977;48.782;9.190;2023-02-12T21:41:21;43.95;;;19.50;;
24631;SDS011;59977;48.782;9.190;2023-02-12T21:43:49;35.20;;;16.43;;
24631;SDS011;59977;48.782;9.190;2023-02-12T21:46:16;29.40;;;14.73;;
24631;SDS011;59977;48.782;9.190;2023-02-12T21:48:43;23.92;;;13.25;;
24631;SDS011;59977;48.782;9.190;2023-02-12T21:51:19;23.15;;;12.48;;
24631;SDS011;59977;48.782;9.190;2023-02-12T21:53:50;23.25;;;11.48;;
24631;SDS011;59977;48.782;9.190;2023-02-12T21:56:18;21.80;;;11.52;;
24631;SDS011;59977;48.782;9.190;2023-02-12T21:58:45;25.40;;;12.00;;
24631;SDS011;59977;48.782;9.190;2023-02-12T22:01:15;19.55;;;11.48;;
24631;SDS011;59977;48.782;9.190;2023-02-12T22:06:08;22.65;;;11.85;;
24631;SDS011;59977;48.782;9.190;2023-02-12T22:08:35;23.20;;;12.18;;
24631;SDS011;59977;48.782;9.190;2023-02-12T22:11:02;24.52;;;12.35;;
24631;SDS011;59977;48.782;9.190;2023-02-12T22:13:29;26.60;;;13.05;;
24631;SDS011;59977;48.782;9.190;2023-02-12T22:15:55;28.85;;;12.75;;
24631;SDS011;59977;48.782;9.190;2023-02-12T22:18:21;26.30;;;12.80;;
24631;SDS011;59977;48.782;9.190;2023-02-12T22:20:47;25.20;;;13.57;;
24631;SDS011;59977;48.782;9.190;2023-02-12T22:23:13;25.35;;;12.38;;
24631;SDS011;59977;48.782;9.190;2023-02-12T22:25:38;23.73;;;11.77;;
24631;SDS011;59977;48.782;9.190;2023-02-12T22:28:04;27.30;;;12.98;;
24631;SDS011;59977;48.782;9.190;2023-02-12T22:30:29;31.75;;;12.48;;
24631;SDS011;59977;48.782;9.190;2023-02-12T22:32:55;23.98;;;12.98;;
24631;SDS011;59977;48.782;9.190;2023-02-12T22:35:20;29.55;;;13.18;;
24631;SDS011;59977;48.782;9.190;2023-02-12T22:37:46;25.33;;;12.95;;
24631;SDS011;59977;48.782;9.190;2023-02-12T22:40:12;23.33;;;12.57;;
24631;SDS011;59977;48.782;9.190;2023-02-12T22:42:38;25.63;;;12.40;;
24631;SDS011;59977;48.782;9.190;2023-02-12T22:45:03;23.90;;;12.02;;
24631;SDS011;59977;48.782;9.190;2023-02-12T22:47:30;23.33;;;12.18;;
24631;SDS011;59977;48.782;9.190;2023-02-12T22:49:57;29.77;;;14.85;;
24631;SDS011;59977;48.782;9.190;2023-02-12T22:52:23;23.02;;;12.02;;
24631;SDS011;59977;48.782;9.190;2023-02-12T22:54:49;22.23;;;12.00;;
24631;SDS011;59977;48.782;9.190;2023-02-12T22:57:15;24.60;;;12.05;;
24631;SDS011;59977;48.782;9.190;2023-02-12T22:59:41;22.65;;;12.40;;
24631;SDS011;59977;48.782;9.190;2023-02-12T23:02:06;24.42;;;12.40;;
24631;SDS011;59977;48.782;9.190;2023-02-12T23:04:33;20.63;;;12.35;;
24631;SDS011;59977;48.782;9.190;2023-02-12T23:06:59;21.75;;;11.52;;
24631;SDS011;59977;48.782;9.190;2023-02-12T23:09:24;25.02;;;12.63;;
24631;SDS011;59977;48.782;9.190;2023-02-12T23:11:50;24.48;;;12.38;;
24631;SDS011;59977;48.782;9.190;2023-02-12T23:14:15;22.30;;;12.55;;
24631;SDS011;59977;48.782;9.190;2023-02-12T23:16:41;24.77;;;13.10;;
24631;SDS011;59977;48.782;9.190;2023-02-12T23:19:08;21.20;;;13.00;;
24631;SDS011;59977;48.782;9.190;2023-02-12T23:21:34;25.33;;;13.32;;
24631;SDS011;59977;48.782;9.190;2023-02-12T23:24:00;21.30;;;12.60;;
24631;SDS011;59977;48.782;9.190;2023-02-12T23:26:26;22.80;;;12.57;;
24631;SDS011;59977;48.782;9.190;2023-02-12T23:28:52;24.92;;;13.05;;
24631;SDS011;59977;48.782;9.190;2023-02-12T23:31:18;24.60;;;12.25;;
24631;SDS011;59977;48.782;9.190;2023-02-12T23:33:43;23.52;;;13.63;;
24631;SDS011;59977;48.782;9.190;2023-02-12T23:36:09;29.80;;;14.05;;
24631;SDS011;59977;48.782;9.190;2023-02-12T23:38:34;25.85;;;12.48;;
24631;SDS011;59977;48.782;9.190;2023-02-12T23:41:00;23.30;;;13.40;;
24631;SDS011;59977;48.782;9.190;2023-02-12T23:43:26;25.92;;;13.25;;
24631;SDS011;59977;48.782;9.190;2023-02-12T23:45:51;24.60;;;13.30;;
24631;SDS011;59977;48.782;9.190;2023-02-12T23:48:17;23.08;;;13.35;;
24631;SDS011;59977;48.782;9.190;2023-02-12T23:50:43;23.13;;;13.38;;
24631;SDS011;59977;48.782;9.190;2023-02-12T23:53:09;23.02;;;13.18;;
24631;SDS011;59977;48.782;9.190;2023-02-12T23:55:35;25.63;;;13.20;;
24631;SDS011;59977;48.782;9.190;2023-02-12T23:58:02;26.52;;;14.02;;
